createdAt,value
2023-05-04T00:02:17.623Z,4.47
2023-05-04T00:04:44.190Z,4.22
2023-05-04T00:07:10.917Z,3.78
2023-05-04T00:09:37.797Z,4.30
2023-05-04T00:12:04.795Z,3.80
2023-05-04T00:14:31.322Z,3.85
2023-05-04T00:16:57.934Z,3.83
2023-05-04T00:19:24.505Z,4.05
2023-05-04T00:21:51.197Z,4.35
2023-05-04T00:24:17.725Z,4.47
2023-05-04T00:26:45.499Z,4.15
2023-05-04T00:29:12.273Z,3.92
2023-05-04T00:31:38.848Z,4.60
2023-05-04T00:34:05.420Z,3.53
2023-05-04T00:36:31.994Z,3.92
2023-05-04T00:38:58.609Z,3.97
2023-05-04T00:41:25.197Z,3.78
2023-05-04T00:43:51.848Z,4.18
2023-05-04T00:46:18.708Z,3.88
2023-05-04T00:48:48.720Z,4.05
2023-05-04T00:51:16.859Z,3.90
2023-05-04T00:53:44.029Z,3.75
2023-05-04T00:56:11.693Z,4.00
2023-05-04T00:58:38.445Z,4.47
2023-05-04T01:01:05.894Z,3.58
2023-05-04T01:03:33.680Z,3.90
2023-05-04T01:06:00.252Z,4.10
2023-05-04T01:08:35.187Z,4.25
2023-05-04T01:11:10.506Z,4.00
2023-05-04T01:13:38.897Z,4.13
2023-05-04T01:16:06.389Z,4.07
2023-05-04T01:18:33.052Z,3.60
2023-05-04T01:21:01.235Z,3.67
2023-05-04T01:23:27.904Z,4.05
2023-05-04T01:26:05.910Z,4.30
2023-05-04T01:29:00.816Z,4.57
2023-05-04T01:31:28.144Z,4.00
2023-05-04T01:33:56.355Z,3.97
2023-05-04T01:36:23.778Z,4.25
2023-05-04T01:38:53.978Z,3.65
2023-05-04T01:41:21.473Z,4.47
2023-05-04T01:43:48.657Z,3.88
2023-05-04T01:46:15.283Z,4.20
2023-05-04T01:48:41.898Z,4.18
2023-05-04T01:51:08.488Z,3.78
2023-05-04T01:53:35.039Z,3.72
2023-05-04T01:56:01.719Z,3.50
2023-05-04T01:58:29.043Z,4.47
2023-05-04T02:00:55.830Z,3.80
2023-05-04T02:03:22.493Z,4.10
2023-05-04T02:05:49.105Z,4.20
2023-05-04T02:08:16.055Z,3.90
2023-05-04T02:10:42.842Z,3.80
2023-05-04T02:13:09.506Z,4.07
2023-05-04T02:15:36.309Z,4.07
2023-05-04T02:18:02.911Z,3.80
2023-05-04T02:20:29.503Z,4.60
2023-05-04T02:22:56.046Z,4.05
2023-05-04T02:25:23.368Z,3.97
2023-05-04T02:27:49.978Z,4.28
2023-05-04T02:30:16.655Z,4.50
2023-05-04T02:32:43.293Z,3.90
2023-05-04T02:35:10.028Z,3.72
2023-05-04T02:37:36.698Z,4.47
2023-05-04T02:40:04.776Z,3.83
2023-05-04T02:42:31.982Z,3.67
2023-05-04T02:44:58.564Z,4.45
2023-05-04T02:47:25.165Z,3.83
2023-05-04T02:49:52.115Z,3.95
2023-05-04T02:52:23.313Z,4.28
2023-05-04T02:54:51.251Z,4.03
2023-05-04T02:57:19.655Z,3.92
2023-05-04T02:59:46.721Z,4.35
2023-05-04T03:02:13.401Z,3.63
2023-05-04T03:04:40.049Z,4.93
2023-05-04T03:07:06.674Z,3.95
2023-05-04T03:09:33.236Z,4.30
2023-05-04T03:11:59.793Z,3.40
2023-05-04T03:14:26.342Z,4.35
2023-05-04T03:16:53.091Z,3.67
2023-05-04T03:19:21.957Z,3.65
2023-05-04T03:21:48.879Z,3.70
2023-05-04T03:24:17.933Z,4.03
2023-05-04T03:26:44.656Z,3.70
2023-05-04T03:29:11.216Z,4.22
2023-05-04T03:31:38.958Z,4.05
2023-05-04T03:34:06.005Z,4.00
2023-05-04T03:36:32.851Z,4.05
2023-05-04T03:38:59.423Z,4.85
2023-05-04T03:41:26.068Z,3.70
2023-05-04T03:43:52.674Z,3.63
2023-05-04T03:46:19.404Z,4.40
2023-05-04T03:48:46.357Z,4.15
2023-05-04T03:53:44.638Z,4.15
2023-05-04T03:56:13.053Z,4.30
2023-05-04T03:58:40.919Z,3.67
2023-05-04T04:01:07.603Z,4.15
2023-05-04T04:03:36.358Z,4.30
2023-05-04T04:06:03.722Z,4.28
2023-05-04T04:08:30.408Z,4.40
2023-05-04T04:10:57.802Z,4.47
2023-05-04T04:13:24.623Z,4.40
2023-05-04T04:15:51.429Z,4.45
2023-05-04T04:18:18.079Z,4.70
2023-05-04T04:20:45.402Z,4.55
2023-05-04T04:23:12.123Z,4.07
2023-05-04T04:25:38.732Z,4.72
2023-05-04T04:28:05.266Z,4.43
2023-05-04T04:30:31.842Z,4.55
2023-05-04T04:32:58.426Z,4.93
2023-05-04T04:35:25.578Z,4.43
2023-05-04T04:37:52.174Z,4.85
2023-05-04T04:40:18.853Z,5.20
2023-05-04T04:42:45.533Z,4.78
2023-05-04T04:45:12.562Z,4.75
2023-05-04T04:47:40.151Z,4.68
2023-05-04T04:50:07.319Z,4.93
2023-05-04T04:52:34.736Z,4.45
2023-05-04T04:55:01.345Z,4.95
2023-05-04T04:57:30.541Z,5.63
2023-05-04T04:59:58.201Z,4.93
2023-05-04T05:02:24.875Z,4.85
2023-05-04T05:04:51.485Z,5.50
2023-05-04T05:07:18.241Z,5.00
2023-05-04T05:09:44.866Z,5.22
2023-05-04T05:12:11.438Z,5.25
2023-05-04T05:14:38.024Z,4.90
2023-05-04T05:17:04.705Z,5.88
2023-05-04T05:19:36.942Z,5.57
2023-05-04T05:22:04.752Z,5.20
2023-05-04T05:24:31.805Z,5.55
2023-05-04T05:26:58.546Z,5.55
2023-05-04T05:29:25.276Z,5.10
2023-05-04T05:31:52.060Z,5.18
2023-05-04T05:34:18.629Z,5.85
2023-05-04T05:36:45.504Z,5.45
2023-05-04T05:39:12.112Z,5.93
2023-05-04T05:41:38.681Z,5.18
2023-05-04T05:44:05.461Z,6.55
2023-05-04T05:46:32.042Z,5.60
2023-05-04T05:48:58.647Z,6.22
2023-05-04T05:51:25.370Z,5.97
2023-05-04T05:53:52.153Z,5.95
2023-05-04T05:56:18.705Z,5.68
2023-05-04T05:58:45.250Z,6.07
2023-05-04T06:01:11.831Z,5.93
2023-05-04T06:03:38.544Z,6.10
2023-05-04T06:06:05.217Z,6.28
2023-05-04T06:08:32.122Z,5.32
2023-05-04T06:10:58.665Z,5.50
2023-05-04T06:13:25.255Z,5.35
2023-05-04T06:15:53.089Z,5.45
2023-05-04T06:18:20.331Z,5.57
2023-05-04T06:20:47.303Z,5.72
2023-05-04T06:23:14.914Z,6.00
2023-05-04T06:25:41.731Z,5.65
2023-05-04T06:28:08.255Z,5.25
2023-05-04T06:30:34.874Z,5.40
2023-05-04T06:33:01.619Z,5.97
2023-05-04T06:35:29.688Z,5.80
2023-05-04T06:37:56.329Z,5.38
2023-05-04T06:40:22.880Z,5.40
2023-05-04T06:42:49.531Z,5.22
2023-05-04T06:45:16.364Z,5.55
2023-05-04T06:47:43.033Z,5.60
2023-05-04T06:50:11.907Z,5.43
2023-05-04T06:52:40.026Z,5.53
2023-05-04T06:55:07.921Z,5.68
2023-05-04T06:57:34.522Z,5.85
2023-05-04T07:00:01.481Z,5.35
2023-05-04T07:02:28.175Z,5.85
2023-05-04T07:04:54.749Z,5.47
2023-05-04T07:07:21.357Z,5.90
2023-05-04T07:09:48.300Z,5.32
2023-05-04T07:12:14.898Z,6.28
2023-05-04T07:14:41.588Z,6.22
2023-05-04T07:17:10.245Z,5.93
2023-05-04T07:19:37.043Z,5.43
2023-05-04T07:22:03.844Z,6.55
2023-05-04T07:24:31.184Z,6.07
2023-05-04T07:26:57.799Z,6.18
2023-05-04T07:29:24.347Z,5.82
2023-05-04T07:31:51.005Z,6.20
2023-05-04T07:34:17.541Z,5.82
2023-05-04T07:36:44.048Z,6.32
2023-05-04T07:39:10.860Z,5.63
2023-05-04T07:41:37.645Z,5.85
2023-05-04T07:44:05.701Z,5.72
2023-05-04T07:46:32.468Z,5.72
2023-05-04T07:48:59.086Z,6.00
2023-05-04T07:51:25.681Z,5.60
2023-05-04T07:53:52.530Z,5.43
2023-05-04T07:56:19.293Z,5.65
2023-05-04T07:58:47.446Z,5.97
2023-05-04T08:01:13.990Z,5.63
2023-05-04T08:03:40.586Z,5.50
2023-05-04T08:06:08.151Z,4.82
2023-05-04T08:08:34.706Z,5.30
2023-05-04T08:11:15.925Z,4.95
2023-05-04T08:13:51.165Z,4.75
2023-05-04T08:16:17.931Z,5.45
2023-05-04T08:18:44.645Z,4.75
2023-05-04T08:21:11.892Z,4.85
2023-05-04T08:23:38.581Z,4.88
2023-05-04T08:26:06.304Z,5.03
2023-05-04T08:28:37.714Z,4.80
2023-05-04T08:31:04.457Z,4.70
2023-05-04T08:33:31.987Z,4.10
2023-05-04T08:35:58.645Z,4.75
2023-05-04T08:38:25.475Z,4.18
2023-05-04T08:40:52.423Z,4.57
2023-05-04T08:43:19.033Z,5.43
2023-05-04T08:45:45.777Z,4.57
2023-05-04T08:48:13.882Z,4.30
2023-05-04T08:50:40.516Z,4.03
2023-05-04T08:53:11.296Z,4.95
2023-05-04T08:55:39.724Z,5.20
2023-05-04T08:58:11.023Z,4.22
2023-05-04T09:00:38.716Z,4.90
2023-05-04T09:03:09.265Z,4.18
2023-05-04T09:05:36.940Z,4.18
2023-05-04T09:08:03.707Z,4.95
2023-05-04T09:10:31.261Z,4.78
2023-05-04T09:12:57.855Z,4.20
2023-05-04T09:15:24.546Z,4.57
2023-05-04T09:17:59.293Z,4.47
2023-05-04T09:20:26.152Z,4.72
2023-05-04T09:23:09.681Z,3.97
2023-05-04T09:25:55.743Z,3.70
2023-05-04T09:28:34.879Z,4.10
2023-05-04T09:31:02.653Z,3.13
2023-05-04T09:33:29.828Z,3.60
2023-05-04T09:35:58.215Z,3.50
2023-05-04T09:38:32.540Z,3.25
2023-05-04T09:40:59.080Z,3.28
2023-05-04T09:43:25.669Z,3.15
2023-05-04T09:45:52.321Z,3.50
2023-05-04T09:48:27.264Z,3.95
2023-05-04T09:51:00.162Z,3.53
2023-05-04T09:53:30.863Z,3.28
2023-05-04T09:56:14.388Z,3.65
2023-05-04T09:58:43.020Z,4.18
2023-05-04T10:01:10.198Z,4.13
2023-05-04T10:03:36.903Z,4.05
2023-05-04T10:06:05.821Z,3.85
2023-05-04T10:08:33.292Z,3.63
2023-05-04T10:11:00.180Z,3.70
2023-05-04T10:13:28.155Z,3.90
2023-05-04T10:16:21.496Z,4.13
2023-05-04T10:19:19.579Z,3.80
2023-05-04T10:22:03.396Z,4.00
2023-05-04T10:24:53.444Z,3.97
2023-05-04T10:27:35.213Z,3.80
2023-05-04T10:30:02.685Z,3.40
2023-05-04T10:32:29.350Z,4.05
2023-05-04T10:35:10.083Z,4.25
2023-05-04T10:37:40.227Z,4.15
2023-05-04T10:40:08.350Z,4.30
2023-05-04T10:42:44.383Z,3.80
2023-05-04T10:45:11.073Z,3.90
2023-05-04T10:47:40.597Z,4.43
2023-05-04T10:50:14.397Z,3.83
2023-05-04T10:52:48.230Z,3.58
2023-05-04T10:55:15.615Z,3.72
2023-05-04T10:57:55.574Z,3.63
2023-05-04T11:00:36.510Z,3.90
2023-05-04T11:03:05.016Z,4.25
2023-05-04T11:05:55.682Z,3.47
2023-05-04T11:08:24.748Z,4.53
2023-05-04T11:11:02.388Z,3.72
2023-05-04T11:13:38.302Z,4.03
2023-05-04T11:16:16.357Z,4.50
2023-05-04T11:18:46.213Z,4.47
2023-05-04T11:21:15.499Z,3.58
2023-05-04T11:26:12.387Z,3.60
2023-05-04T11:28:39.562Z,3.75
2023-05-04T11:31:17.144Z,3.90
2023-05-04T11:33:52.230Z,3.95
2023-05-04T11:36:20.225Z,3.00
2023-05-04T11:38:47.547Z,3.60
2023-05-04T11:41:14.237Z,3.45
2023-05-04T11:43:43.828Z,3.53
2023-05-04T11:46:11.416Z,3.70
2023-05-04T11:48:38.896Z,3.42
2023-05-04T11:51:06.881Z,3.20
2023-05-04T11:53:40.736Z,3.17
2023-05-04T11:56:10.984Z,3.00
2023-05-04T11:58:37.684Z,3.00
2023-05-04T12:01:04.514Z,2.90
2023-05-04T12:03:48.497Z,3.42
2023-05-04T12:06:20.132Z,3.13
2023-05-04T12:08:47.110Z,3.10
2023-05-04T12:11:21.831Z,3.65
2023-05-04T12:14:01.424Z,3.10
2023-05-04T12:16:28.150Z,2.90
2023-05-04T12:19:08.164Z,3.83
2023-05-04T12:21:36.074Z,3.35
2023-05-04T12:24:05.129Z,3.45
2023-05-04T12:28:58.504Z,3.35
2023-05-04T12:31:29.052Z,3.33
2023-05-04T12:33:55.711Z,3.33
2023-05-04T12:36:22.597Z,3.97
2023-05-04T12:38:49.160Z,4.13
2023-05-04T12:41:17.334Z,3.72
2023-05-04T12:43:44.079Z,3.10
2023-05-04T12:46:10.759Z,3.92
2023-05-04T12:48:37.430Z,3.08
2023-05-04T12:51:04.885Z,3.42
2023-05-04T12:53:32.295Z,3.13
2023-05-04T12:55:59.765Z,3.50
2023-05-04T12:58:26.448Z,3.30
2023-05-04T13:00:53.304Z,3.63
2023-05-04T13:03:20.216Z,3.15
2023-05-04T13:05:48.266Z,3.50
2023-05-04T13:08:15.068Z,3.40
2023-05-04T13:10:41.653Z,3.40
2023-05-04T13:13:08.552Z,3.45
2023-05-04T13:15:35.200Z,3.35
2023-05-04T13:18:02.012Z,3.00
2023-05-04T13:20:28.626Z,2.90
2023-05-04T13:22:58.180Z,2.95
2023-05-04T13:25:26.997Z,2.78
2023-05-04T13:27:54.342Z,3.58
2023-05-04T13:30:21.883Z,3.80
2023-05-04T13:32:49.599Z,3.08
2023-05-04T13:35:16.399Z,2.88
2023-05-04T13:37:42.917Z,3.60
2023-05-04T13:40:11.048Z,3.20
2023-05-04T13:42:38.049Z,3.30
2023-05-04T13:45:06.476Z,3.38
2023-05-04T13:47:36.857Z,3.05
2023-05-04T13:50:04.012Z,3.58
2023-05-04T13:52:32.099Z,3.85
2023-05-04T13:54:59.390Z,4.33
2023-05-04T13:57:29.279Z,3.72
2023-05-04T14:00:06.487Z,3.00
2023-05-04T14:02:40.676Z,2.95
2023-05-04T14:05:07.875Z,2.75
2023-05-04T14:07:35.273Z,3.20
2023-05-04T14:10:02.441Z,3.55
2023-05-04T14:12:29.310Z,2.97
2023-05-04T14:14:57.201Z,3.10
2023-05-04T14:17:23.774Z,2.53
2023-05-04T14:19:50.441Z,2.95
2023-05-04T14:22:17.009Z,3.15
2023-05-04T14:24:43.606Z,2.60
2023-05-04T14:27:10.217Z,3.10
2023-05-04T14:29:36.977Z,2.53
2023-05-04T14:32:04.263Z,2.70
2023-05-04T14:34:31.126Z,2.75
2023-05-04T14:36:57.762Z,3.05
2023-05-04T14:39:24.889Z,2.58
2023-05-04T14:41:52.842Z,2.63
2023-05-04T14:44:22.500Z,2.40
2023-05-04T14:46:49.105Z,2.50
2023-05-04T14:49:21.740Z,2.25
2023-05-04T14:51:55.215Z,2.13
2023-05-04T14:54:23.934Z,2.70
2023-05-04T14:56:52.248Z,2.40
2023-05-04T14:59:19.740Z,2.57
2023-05-04T15:01:47.045Z,2.40
2023-05-04T15:04:13.881Z,2.17
2023-05-04T15:06:40.562Z,2.50
2023-05-04T15:09:07.469Z,1.92
2023-05-04T15:11:34.092Z,2.30
2023-05-04T15:14:01.586Z,2.28
2023-05-04T15:16:32.295Z,1.83
2023-05-04T15:18:59.622Z,2.47
2023-05-04T15:21:27.818Z,2.20
2023-05-04T15:23:54.404Z,1.92
2023-05-04T15:26:22.163Z,2.65
2023-05-04T15:28:49.242Z,1.80
2023-05-04T15:31:17.512Z,1.67
2023-05-04T15:33:44.480Z,2.23
2023-05-04T15:36:11.168Z,2.50
2023-05-04T15:38:37.791Z,2.50
2023-05-04T15:41:05.834Z,2.50
2023-05-04T15:43:33.595Z,2.40
2023-05-04T15:46:00.371Z,2.20
2023-05-04T15:48:27.858Z,2.00
2023-05-04T15:50:54.744Z,1.98
2023-05-04T15:53:21.495Z,1.90
2023-05-04T15:55:48.602Z,1.88
2023-05-04T15:58:15.248Z,2.00
2023-05-04T16:00:42.222Z,2.30
2023-05-04T16:03:09.002Z,2.50
2023-05-04T16:05:35.845Z,2.03
2023-05-04T16:08:03.087Z,1.88
2023-05-04T16:10:29.766Z,1.95
2023-05-04T16:12:56.606Z,2.00
2023-05-04T16:15:24.945Z,1.90
2023-05-04T16:17:51.533Z,1.77
2023-05-04T16:20:22.116Z,2.28
2023-05-04T16:22:48.924Z,2.72
2023-05-04T16:25:15.654Z,2.05
2023-05-04T16:27:42.304Z,2.50
2023-05-04T16:30:09.578Z,2.45
2023-05-04T16:32:36.832Z,2.15
2023-05-04T16:35:03.837Z,2.20
2023-05-04T16:37:30.426Z,2.10
2023-05-04T16:39:56.990Z,2.08
2023-05-04T16:42:31.935Z,1.65
2023-05-04T16:45:00.880Z,2.20
2023-05-04T16:47:27.602Z,2.05
2023-05-04T16:49:54.178Z,2.40
2023-05-04T16:52:21.060Z,2.05
2023-05-04T16:54:47.653Z,2.10
2023-05-04T16:57:14.203Z,1.98
2023-05-04T16:59:40.900Z,1.70
2023-05-04T17:02:08.629Z,2.20
2023-05-04T17:04:36.200Z,1.73
2023-05-04T17:07:02.865Z,1.80
2023-05-04T17:09:29.549Z,1.90
2023-05-04T17:11:56.148Z,1.77
2023-05-04T17:14:22.777Z,2.10
2023-05-04T17:16:49.358Z,2.00
2023-05-04T17:19:15.957Z,2.03
2023-05-04T17:21:42.551Z,2.38
2023-05-04T17:24:11.607Z,2.45
2023-05-04T17:26:38.351Z,2.92
2023-05-04T17:29:06.595Z,3.28
2023-05-04T17:31:33.371Z,2.58
2023-05-04T17:34:00.049Z,3.05
2023-05-04T17:36:28.008Z,3.15
2023-05-04T17:38:54.603Z,2.72
2023-05-04T17:41:21.352Z,3.50
2023-05-04T17:43:50.120Z,3.38
2023-05-04T17:46:20.853Z,3.08
2023-05-04T17:48:56.538Z,3.65
2023-05-04T17:51:26.212Z,3.92
2023-05-04T17:53:53.490Z,4.18
2023-05-04T17:56:21.279Z,5.40
2023-05-04T17:58:47.893Z,4.75
2023-05-04T18:01:15.700Z,6.30
2023-05-04T18:03:43.115Z,4.88
2023-05-04T18:06:09.872Z,5.35
2023-05-04T18:08:36.495Z,6.05
2023-05-04T18:11:03.071Z,6.18
2023-05-04T18:13:29.628Z,3.70
2023-05-04T18:15:56.302Z,2.83
2023-05-04T18:18:22.861Z,2.30
2023-05-04T18:20:49.417Z,2.78
2023-05-04T18:23:16.047Z,2.40
2023-05-04T18:25:42.711Z,2.20
2023-05-04T18:28:09.306Z,2.47
2023-05-04T18:30:36.007Z,3.63
2023-05-04T18:33:02.586Z,3.67
2023-05-04T18:35:29.237Z,4.63
2023-05-04T18:38:02.163Z,2.78
2023-05-04T18:40:29.063Z,2.90
2023-05-04T18:42:55.627Z,2.88
2023-05-04T18:45:23.090Z,4.07
2023-05-04T18:47:50.976Z,3.17
2023-05-04T18:50:17.730Z,2.63
2023-05-04T18:52:44.258Z,2.55
2023-05-04T18:55:13.773Z,2.20
2023-05-04T18:57:40.398Z,2.38
2023-05-04T19:00:09.091Z,2.20
2023-05-04T19:02:38.307Z,2.33
2023-05-04T19:05:25.913Z,2.50
2023-05-04T19:07:52.448Z,2.63
2023-05-04T19:10:19.265Z,2.97
2023-05-04T19:12:45.947Z,4.35
2023-05-04T19:15:13.086Z,3.88
2023-05-04T19:17:39.998Z,3.03
2023-05-04T19:20:07.153Z,3.40
2023-05-04T19:22:33.821Z,3.47
2023-05-04T19:25:00.502Z,2.90
2023-05-04T19:27:27.182Z,3.42
2023-05-04T19:29:56.027Z,3.90
2023-05-04T19:32:24.722Z,4.10
2023-05-04T19:34:52.198Z,4.63
2023-05-04T19:37:18.928Z,4.88
2023-05-04T19:39:46.092Z,4.05
2023-05-04T19:42:12.651Z,5.18
2023-05-04T19:44:39.278Z,4.78
2023-05-04T19:47:05.961Z,6.50
2023-05-04T19:49:32.732Z,5.53
2023-05-04T19:51:59.283Z,5.68
2023-05-04T19:54:25.918Z,5.32
2023-05-04T19:56:52.997Z,6.45
2023-05-04T19:59:19.670Z,5.20
2023-05-04T20:01:46.772Z,3.78
2023-05-04T20:04:13.596Z,3.30
2023-05-04T20:06:40.162Z,2.78
2023-05-04T20:09:06.799Z,2.50
2023-05-04T20:11:33.719Z,2.75
2023-05-04T20:14:00.897Z,2.38
2023-05-04T20:16:27.492Z,2.72
2023-05-04T20:18:54.156Z,2.58
2023-05-04T20:21:20.840Z,2.30
2023-05-04T20:23:47.564Z,2.95
2023-05-04T20:26:14.225Z,2.42
2023-05-04T20:28:40.961Z,2.70
2023-05-04T20:31:08.374Z,2.70
2023-05-04T20:33:35.963Z,2.60
2023-05-04T20:36:02.711Z,2.90
2023-05-04T20:38:29.320Z,2.55
2023-05-04T20:40:55.970Z,2.70
2023-05-04T20:43:22.643Z,2.45
2023-05-04T20:45:53.405Z,3.00
2023-05-04T20:48:20.096Z,3.00
2023-05-04T20:50:46.673Z,3.13
2023-05-04T20:53:13.265Z,3.15
2023-05-04T20:55:40.524Z,3.22
2023-05-04T20:58:07.114Z,3.08
2023-05-04T21:00:33.860Z,3.42
2023-05-04T21:03:00.665Z,2.88
2023-05-04T21:05:29.859Z,2.80
2023-05-04T21:07:56.510Z,2.97
2023-05-04T21:10:23.165Z,3.22
2023-05-04T21:12:50.094Z,2.58
2023-05-04T21:15:20.094Z,2.90
2023-05-04T21:17:49.867Z,3.80
2023-05-04T21:20:17.137Z,2.72
2023-05-04T21:22:44.198Z,3.20
2023-05-04T21:25:16.130Z,3.20
2023-05-04T21:27:44.326Z,2.83
2023-05-04T21:30:11.265Z,3.40
2023-05-04T21:32:37.889Z,3.42
2023-05-04T21:35:04.940Z,3.75
2023-05-04T21:37:31.519Z,3.55
2023-05-04T21:39:58.068Z,3.25
2023-05-04T21:42:24.890Z,3.40
2023-05-04T21:44:57.681Z,3.53
2023-05-04T21:47:26.727Z,4.32
2023-05-04T21:49:56.742Z,3.65
2023-05-04T21:52:25.103Z,4.30
2023-05-04T21:54:51.761Z,3.97
2023-05-04T21:57:19.194Z,3.45
2023-05-04T21:59:49.605Z,3.65
2023-05-04T22:02:16.400Z,4.10
2023-05-04T22:04:43.333Z,4.30
2023-05-04T22:07:10.669Z,4.47
2023-05-04T22:09:37.285Z,3.67
2023-05-04T22:12:04.112Z,3.70
2023-05-04T22:14:30.697Z,3.90
2023-05-04T22:16:57.919Z,4.15
2023-05-04T22:19:24.708Z,3.67
2023-05-04T22:21:51.288Z,4.25
2023-05-04T22:24:18.035Z,3.70
2023-05-04T22:26:44.651Z,4.07
2023-05-04T22:29:11.201Z,4.13
2023-05-04T22:31:37.776Z,4.72
2023-05-04T22:34:04.323Z,3.90
2023-05-04T22:36:30.897Z,3.90
2023-05-04T22:38:57.664Z,3.80
2023-05-04T22:41:24.281Z,4.30
2023-05-04T22:43:50.935Z,4.40
2023-05-04T22:46:17.756Z,4.00
2023-05-04T22:48:47.988Z,4.15
2023-05-04T22:51:14.678Z,3.92
2023-05-04T22:53:41.443Z,4.55
2023-05-04T22:56:08.467Z,3.60
2023-05-04T22:58:35.073Z,4.28
2023-05-04T23:01:01.677Z,4.68
2023-05-04T23:03:28.338Z,4.10
2023-05-04T23:05:59.758Z,4.38
2023-05-04T23:08:26.487Z,4.05
2023-05-04T23:10:53.069Z,4.07
2023-05-04T23:13:19.641Z,4.20
2023-05-04T23:15:46.493Z,4.20
2023-05-04T23:18:13.116Z,3.72
2023-05-04T23:20:39.744Z,4.00
2023-05-04T23:23:06.368Z,3.97
2023-05-04T23:25:33.122Z,4.20
2023-05-04T23:27:59.665Z,4.00
2023-05-04T23:30:26.311Z,3.83
2023-05-04T23:32:52.951Z,3.90
2023-05-04T23:35:19.536Z,3.80
2023-05-04T23:37:46.439Z,4.00
2023-05-04T23:40:13.613Z,3.67
2023-05-04T23:42:40.110Z,3.45
2023-05-04T23:45:07.456Z,3.60
2023-05-04T23:47:34.016Z,3.60
2023-05-04T23:50:01.190Z,3.38
2023-05-04T23:52:27.797Z,3.50
2023-05-04T23:54:54.462Z,3.70
2023-05-04T23:57:21.171Z,2.90
2023-05-04T23:59:47.737Z,3.50
